Arlington, OR

9:38 AM PDT on October 02, 2014 (GMT -0700)
KORARLIN2 | Change Station
CLOSE
Current Station
Personal Weather Station
Location: Arlington, OR
Elevation: 890 ft
Nearby Weather Stations

Elev 890 ft 45.72 °N, 120.18 °W | Updated 4 minutes ago

Clear
Clear
58.9 °F
Feels Like 58.9 °F
N
0.0
Wind Variable Wind from SW
Gusts 0.0 mph

Today
High -- | Low -- °F
--% Chance of Precip.
Yesterday
High -- | Low -- °F
Precip. -- in
7:00 AM 6:38 PM
First Quarter, 60% visible
Pressure 30.25 in
Visibility 10.0 miles
Clouds Clear
Dew Point 42 °F
Humidity 54%
Rainfall 0.00 in
Snow Depth 0 in , 0 in , 0 in
UV 1.6 out of 12
Pollen 3.60 out of 12
Air Quality Not available.
Flu Activity Not available.
METAR KHRI 021553Z AUTO 00000KT 10SM CLR 13/04 A3025 RMK AO2 SLP243 T01280044

More Conditions Fewer Conditions

Pressure 30.25 in
Visibility 10.0 miles
Clouds Clear
Dew Point 42 °F
Humidity 54%
Rainfall 0.00 in
Snow Depth 0 in , 0 in , 0 in
UV 1.6 out of 12
Pollen 3.60 out of 12
Air Quality Not available.
Flu Activity Not available.
METAR KHRI 021553Z AUTO 00000KT 10SM CLR 13/04 A3025 RMK AO2 SLP243 T01280044

More Conditions Fewer Conditions

10-Day Weather Forecast

Almanac

Astronomy

Oct. 02, 2014 Rise Set
Actual Time 7:00 AM PDT 6:38 PM PDT
Civil Twilight 6:30 AM PDT 7:08 PM PDT
Nautical Twilight 5:56 AM PDT 7:42 PM PDT
Astronomical Twilight 5:21 AM PDT 8:17 PM PDT
Moon 3:04 PM PDT 12:05 AM PDT
Length of Visible Light 12h 37m
Length of Day
11h 38m
Tomorrow will be 3m 11s shorter.
First Quarter, 60% of the Moon is Illuminated
Today
First Quarter
Oct 8
Full
Oct 15
Last Quarter
Oct 23
New
Oct 30
First Quarter

Today's Extremes

State Highs State Lows

Community

WunderPhotos

Upload Photos

1,758,294 photos uploaded!

WunderBlogs® & News

Nearby

Snow Depth

Station Depth Elevation
Cold Springs Camp 0 in 6100 ft
County Line 0 in 4800 ft
Blue Mountain Spring 0 in 5900 ft
Gerber Reservoir 0 in 4850 ft
Bigelow Camp 0 in 5120 ft

Earthquake Activity

City Distance Mag. Time & Date
No recent earthquake activity has been reported nearby.
Minimum magnitude displayed is 2.5.

Coastal Water Temperatures

Place Temperature
No Stations Reporting

Nearby Weather Stations